Time;durP1;ratioP1;P1;durP2;ratioP2;P2;SDS_P1;SDS_P2;PMS_P1;PMS_P2;Temp;Humidity;BMP_temperature;BMP_pressure;BME280_temperature;BME280_humidity;BME280_pressure;Samples;Min_cycle;Max_cycle;Signal;HPM_P1;HPM_P2
2022/04/05 00:02:15;;;;;;;13.57;11.95;;;4.60;99.90;;;;;;4995169;28;20026;-88
2022/04/05 00:04:41;;;;;;;13.40;12.20;;;4.60;99.90;;;;;;4994842;28;20121;-90
2022/04/05 00:07:07;;;;;;;14.52;13.10;;;4.60;99.90;;;;;;5012941;28;20046;-90
2022/04/05 00:09:32;;;;;;;14.27;12.88;;;4.70;99.90;;;;;;4987147;28;20061;-88
2022/04/05 00:11:58;;;;;;;14.20;12.90;;;4.70;99.90;;;;;;5012170;28;20783;-90
2022/04/05 00:14:24;;;;;;;14.70;13.32;;;4.70;99.90;;;;;;5014970;28;20032;-90
2022/04/05 00:16:50;;;;;;;14.07;12.93;;;4.70;99.90;;;;;;5015565;28;20080;-90
2022/04/05 00:19:15;;;;;;;13.25;12.15;;;4.70;99.90;;;;;;5030327;28;20037;-89
2022/04/05 00:21:41;;;;;;;16.42;13.25;;;4.70;99.90;;;;;;5035752;28;20081;-88
2022/04/05 00:24:07;;;;;;;16.23;13.70;;;4.70;99.90;;;;;;5022183;28;20506;-89
2022/04/05 00:26:34;;;;;;;15.70;14.30;;;4.70;99.90;;;;;;5002628;28;20115;-88
2022/04/05 00:28:59;;;;;;;14.02;12.68;;;4.60;99.90;;;;;;5012353;28;20022;-89
2022/04/05 00:31:25;;;;;;;14.32;13.13;;;4.60;99.90;;;;;;4994608;28;20041;-88
2022/04/05 00:33:51;;;;;;;15.02;13.60;;;4.60;99.90;;;;;;4993821;28;20030;-89
2022/04/05 00:36:16;;;;;;;14.80;13.30;;;4.60;99.90;;;;;;5012519;28;20049;-89
2022/04/05 00:38:42;;;;;;;14.43;12.93;;;4.60;99.90;;;;;;5012120;28;20080;-90
2022/04/05 00:41:08;;;;;;;14.35;12.90;;;4.60;99.90;;;;;;4994471;28;20430;-90
2022/04/05 00:43:33;;;;;;;14.77;13.32;;;4.60;99.90;;;;;;4994410;28;20030;-89
2022/04/05 00:45:59;;;;;;;15.38;13.23;;;4.60;99.90;;;;;;5011772;28;20491;-90
2022/04/05 00:48:30;;;;;;;15.18;13.70;;;4.60;99.90;;;;;;4994779;28;20025;-89
2022/04/05 00:50:56;;;;;;;15.07;13.75;;;4.60;99.90;;;;;;4993974;28;20050;-89
2022/04/05 00:53:26;;;;;;;15.05;13.75;;;4.60;99.90;;;;;;5012113;28;20116;-89
2022/04/05 00:55:56;;;;;;;14.47;13.07;;;4.60;99.90;;;;;;5011926;28;20100;-90
2022/04/05 00:58:24;;;;;;;13.95;12.75;;;4.60;99.90;;;;;;4991174;28;20265;-89
2022/04/05 01:00:50;;;;;;;13.80;11.75;;;4.60;99.90;;;;;;5012398;28;20538;-89
2022/04/05 01:03:17;;;;;;;14.40;13.13;;;4.60;99.90;;;;;;4994777;28;20034;-89
2022/04/05 01:05:46;;;;;;;14.07;12.73;;;4.60;99.90;;;;;;5011782;28;20105;-90
2022/04/05 01:08:14;;;;;;;14.32;12.85;;;4.60;99.90;;;;;;5010347;28;20022;-90
2022/04/05 01:10:41;;;;;;;13.75;12.55;;;4.60;99.90;;;;;;5011917;28;20022;-90
2022/04/05 01:13:07;;;;;;;14.77;13.38;;;4.60;99.90;;;;;;5005824;28;20503;-90
2022/04/05 01:15:33;;;;;;;14.30;13.00;;;4.60;99.90;;;;;;5012146;28;20106;-89
2022/04/05 01:18:01;;;;;;;13.75;12.55;;;4.70;99.90;;;;;;5012111;28;20118;-89
2022/04/05 01:20:27;;;;;;;14.43;12.55;;;4.60;99.90;;;;;;4994083;28;20045;-89
2022/04/05 01:22:57;;;;;;;14.70;12.63;;;4.60;99.90;;;;;;5011490;28;20485;-89
2022/04/05 01:25:23;;;;;;;16.60;12.95;;;4.60;99.90;;;;;;5010276;28;20041;-89
2022/04/05 01:27:51;;;;;;;13.75;12.45;;;4.60;99.90;;;;;;4994402;28;20026;-89
2022/04/05 01:30:16;;;;;;;17.73;12.00;;;4.60;99.90;;;;;;4994436;28;20029;-89
2022/04/05 01:32:42;;;;;;;15.98;13.18;;;4.60;99.90;;;;;;5011658;28;20041;-89
2022/04/05 01:35:14;;;;;;;13.82;12.32;;;4.60;99.90;;;;;;5011801;28;20057;-90
2022/04/05 01:37:39;;;;;;;14.05;12.75;;;4.60;99.90;;;;;;5011601;28;20113;-89
2022/04/05 01:40:06;;;;;;;15.30;13.38;;;4.50;99.90;;;;;;5002260;28;20545;-90
2022/04/05 01:42:33;;;;;;;15.85;13.93;;;4.60;99.90;;;;;;5012239;28;20037;-89
2022/04/05 01:44:59;;;;;;;14.27;12.98;;;4.50;99.90;;;;;;4996303;28;20179;-90
2022/04/05 01:47:25;;;;;;;13.40;12.20;;;4.50;99.90;;;;;;4998020;28;20529;-89
2022/04/05 01:49:51;;;;;;;14.93;13.45;;;4.50;99.90;;;;;;4997340;28;20022;-90
2022/04/05 01:52:17;;;;;;;15.82;14.43;;;4.50;99.90;;;;;;5015011;28;20394;-89
2022/04/05 01:54:43;;;;;;;16.67;12.48;;;4.40;99.90;;;;;;5015309;28;20030;-89
2022/04/05 01:57:09;;;;;;;15.63;12.98;;;4.40;99.90;;;;;;5015844;28;20076;-90
2022/04/05 01:59:37;;;;;;;14.77;13.27;;;4.40;99.90;;;;;;5014529;28;20506;-89
2022/04/05 02:02:07;;;;;;;15.82;13.13;;;4.40;99.90;;;;;;4996770;28;20022;-89
2022/04/05 02:04:34;;;;;;;18.05;13.70;;;4.30;99.90;;;;;;5002980;28;20101;-89
2022/04/05 02:07:00;;;;;;;15.38;14.07;;;4.30;99.90;;;;;;4996852;28;20026;-90
2022/04/05 02:09:25;;;;;;;15.43;13.23;;;4.30;99.90;;;;;;4997144;28;20030;-89
2022/04/05 02:11:53;;;;;;;13.68;12.45;;;4.30;99.90;;;;;;5010602;28;20081;-89
2022/04/05 02:14:19;;;;;;;15.63;14.23;;;4.20;99.90;;;;;;5015154;28;20057;-89
2022/04/05 02:16:47;;;;;;;14.85;13.38;;;4.20;99.90;;;;;;4997525;28;20389;-87
2022/04/05 02:19:13;;;;;;;14.63;13.35;;;4.10;99.90;;;;;;5004596;28;20026;-89
2022/04/05 02:21:39;;;;;;;15.27;13.77;;;4.10;99.90;;;;;;4978461;28;20045;-89
2022/04/05 02:24:04;;;;;;;15.25;13.70;;;4.10;99.90;;;;;;4987430;28;20512;-89
2022/04/05 02:26:30;;;;;;;15.65;13.60;;;4.10;99.90;;;;;;5005723;28;20045;-87
2022/04/05 02:28:56;;;;;;;16.98;13.90;;;4.00;99.90;;;;;;5014019;28;20026;-87
2022/04/05 02:31:24;;;;;;;14.80;13.48;;;4.00;99.90;;;;;;4996284;28;20034;-89
2022/04/05 02:33:50;;;;;;;15.70;14.07;;;3.90;99.90;;;;;;4999213;28;20030;-88
2022/04/05 02:36:15;;;;;;;14.95;13.52;;;3.90;99.90;;;;;;5013139;28;20022;-89
2022/04/05 02:38:41;;;;;;;14.63;13.20;;;3.90;99.90;;;;;;5023319;28;20030;-90
2022/04/05 02:41:07;;;;;;;14.77;13.27;;;3.90;99.90;;;;;;5033218;28;20112;-89
2022/04/05 02:43:34;;;;;;;15.32;13.82;;;3.90;99.90;;;;;;5006781;28;20517;-89
2022/04/05 02:46:00;;;;;;;14.93;13.65;;;3.80;99.90;;;;;;5003082;28;20026;-89
2022/04/05 02:48:26;;;;;;;16.27;13.50;;;3.80;99.90;;;;;;5016283;28;20032;-88
2022/04/05 02:50:52;;;;;;;15.00;13.60;;;3.90;99.90;;;;;;5013454;28;20042;-89
2022/04/05 02:53:18;;;;;;;14.35;12.93;;;3.90;99.90;;;;;;4993138;28;20030;-90
2022/04/05 02:55:44;;;;;;;18.05;14.27;;;3.90;99.90;;;;;;4997683;28;20497;-85
2022/04/05 02:58:11;;;;;;;14.57;13.13;;;3.80;99.90;;;;;;5028671;28;20038;-89
2022/04/05 03:00:37;;;;;;;15.93;14.52;;;3.80;99.90;;;;;;4993969;28;20022;-90
2022/04/05 03:03:03;;;;;;;14.52;13.23;;;3.80;99.90;;;;;;5013271;28;20378;-89
2022/04/05 03:05:29;;;;;;;14.60;13.10;;;3.80;99.90;;;;;;5013268;28;20052;-89
2022/04/05 03:07:55;;;;;;;14.75;13.13;;;3.80;99.90;;;;;;5013374;28;20541;-89
2022/04/05 03:10:21;;;;;;;15.00;13.45;;;3.80;99.90;;;;;;5013267;28;20026;-89
2022/04/05 03:12:46;;;;;;;14.82;13.32;;;3.80;99.90;;;;;;4992814;28;20061;-90
2022/04/05 03:15:13;;;;;;;14.50;12.93;;;3.90;99.90;;;;;;5003902;28;20505;-88
2022/04/05 03:17:43;;;;;;;15.30;13.68;;;3.80;99.90;;;;;;5014572;28;20038;-88
2022/04/05 03:20:12;;;;;;;14.63;13.13;;;3.90;99.90;;;;;;5012913;28;20126;-90
2022/04/05 03:22:39;;;;;;;15.32;13.85;;;3.80;99.90;;;;;;5023726;28;20030;-89
2022/04/05 03:25:05;;;;;;;15.07;13.57;;;3.90;99.90;;;;;;5013818;28;20109;-88
2022/04/05 03:27:30;;;;;;;15.57;14.00;;;3.90;99.90;;;;;;5013580;28;20050;-87
2022/04/05 03:29:56;;;;;;;14.13;12.93;;;3.90;99.90;;;;;;5012756;28;20442;-89
2022/04/05 03:32:22;;;;;;;14.45;13.20;;;3.90;99.90;;;;;;5013035;28;20045;-89
2022/04/05 03:34:50;;;;;;;14.82;13.32;;;3.90;99.90;;;;;;5028154;28;20521;-89
2022/04/05 03:37:15;;;;;;;13.43;12.23;;;3.90;99.90;;;;;;5025016;28;20042;-89
2022/04/05 03:39:41;;;;;;;14.13;12.88;;;3.90;99.90;;;;;;5013761;28;20033;-88
2022/04/05 03:42:07;;;;;;;14.45;13.15;;;3.90;99.90;;;;;;4995507;28;20058;-87
2022/04/05 03:44:32;;;;;;;14.15;12.85;;;3.90;99.90;;;;;;5018291;28;20042;-88
2022/04/05 03:46:59;;;;;;;13.05;11.95;;;3.90;99.90;;;;;;4995642;28;21805;-90
2022/04/05 03:49:25;;;;;;;13.95;12.63;;;3.90;99.90;;;;;;5012318;28;20109;-88
2022/04/05 03:51:51;;;;;;;14.15;12.77;;;3.90;99.90;;;;;;4998924;28;20065;-88
2022/04/05 03:54:16;;;;;;;13.43;12.02;;;3.90;99.90;;;;;;4995673;28;20077;-89
2022/04/05 03:56:42;;;;;;;13.70;12.40;;;3.90;99.90;;;;;;4997401;28;20033;-88
2022/04/05 03:59:08;;;;;;;13.50;12.27;;;4.00;99.90;;;;;;5019390;28;20038;-87
2022/04/05 04:01:33;;;;;;;13.85;12.75;;;4.00;99.90;;;;;;4996489;28;20030;-87
2022/04/05 04:03:59;;;;;;;14.30;12.90;;;4.10;99.90;;;;;;5013741;28;20036;-88
2022/04/05 04:06:24;;;;;;;14.38;13.02;;;4.10;99.90;;;;;;4996719;28;20017;-89
2022/04/05 04:08:50;;;;;;;13.43;12.23;;;4.10;99.90;;;;;;5013709;28;20540;-89
2022/04/05 04:11:16;;;;;;;14.05;12.65;;;4.10;99.90;;;;;;5009325;28;20072;-89
2022/04/05 04:13:41;;;;;;;13.57;12.32;;;4.10;99.90;;;;;;5012665;28;20022;-89
2022/04/05 04:16:07;;;;;;;13.90;12.50;;;4.10;99.90;;;;;;5011998;28;20026;-89
2022/04/05 04:18:32;;;;;;;13.40;12.10;;;4.20;99.90;;;;;;5012837;28;20082;-89
2022/04/05 04:20:58;;;;;;;12.23;11.13;;;4.20;99.90;;;;;;5011924;28;20026;-88
2022/04/05 04:23:24;;;;;;;14.40;12.93;;;4.30;99.90;;;;;;5012571;28;20038;-89
2022/04/05 04:25:49;;;;;;;13.00;11.75;;;4.30;99.90;;;;;;5011578;28;20033;-89
2022/04/05 04:28:16;;;;;;;14.07;12.77;;;4.30;99.90;;;;;;5014102;28;20031;-88
2022/04/05 04:30:42;;;;;;;12.63;11.43;;;4.40;99.90;;;;;;4993982;28;20033;-89
2022/04/05 04:33:10;;;;;;;12.55;11.43;;;4.40;99.90;;;;;;4999140;28;20493;-87
2022/04/05 04:35:39;;;;;;;13.73;12.52;;;4.40;99.90;;;;;;5012661;28;20030;-89
2022/04/05 04:38:07;;;;;;;12.77;11.70;;;4.40;99.90;;;;;;5012059;28;20065;-88
2022/04/05 04:40:33;;;;;;;12.70;11.50;;;4.40;99.90;;;;;;5028396;28;20099;-89
2022/04/05 04:42:59;;;;;;;13.02;11.80;;;4.40;99.90;;;;;;5004554;28;20049;-89
2022/04/05 04:45:27;;;;;;;12.38;11.18;;;4.40;99.90;;;;;;4991472;28;20029;-90
2022/04/05 04:47:53;;;;;;;12.85;11.60;;;4.40;99.90;;;;;;5013131;28;20033;-89
2022/04/05 04:50:19;;;;;;;13.20;11.90;;;4.40;99.90;;;;;;5018706;28;20052;-89
2022/04/05 04:52:44;;;;;;;13.25;11.52;;;4.40;99.90;;;;;;5015316;28;20081;-87
2022/04/05 04:55:10;;;;;;;12.35;10.95;;;4.50;99.90;;;;;;5006360;28;20061;-93
2022/04/05 04:57:36;;;;;;;12.60;11.40;;;4.50;99.90;;;;;;5027740;28;20073;-89
2022/04/05 05:00:02;;;;;;;12.45;11.15;;;4.50;99.90;;;;;;5024516;28;20026;-88
2022/04/05 05:02:28;;;;;;;12.70;11.50;;;4.50;99.90;;;;;;5011463;28;20400;-88
2022/04/05 05:04:54;;;;;;;12.30;11.07;;;4.50;99.90;;;;;;5020373;28;20022;-88
2022/04/05 05:07:19;;;;;;;12.93;11.73;;;4.50;99.90;;;;;;5023328;28;20026;-88
2022/04/05 05:09:45;;;;;;;13.38;11.60;;;4.50;99.90;;;;;;5022352;28;20386;-89
2022/04/05 05:12:11;;;;;;;13.63;12.40;;;4.50;99.90;;;;;;4997291;28;20026;-89
2022/04/05 05:14:39;;;;;;;13.02;11.93;;;4.60;99.90;;;;;;5031678;28;20030;-89
2022/04/05 05:17:06;;;;;;;11.18;10.07;;;4.50;99.90;;;;;;5012428;28;20037;-89
2022/04/05 05:19:32;;;;;;;13.68;12.38;;;4.60;99.90;;;;;;5013555;28;20022;-89
2022/04/05 05:21:58;;;;;;;13.15;11.93;;;4.60;99.90;;;;;;4998407;28;20028;-88
2022/04/05 05:24:23;;;;;;;13.25;11.77;;;4.60;99.90;;;;;;4998555;28;20134;-89
2022/04/05 05:26:50;;;;;;;14.18;11.98;;;4.60;99.90;;;;;;5015729;28;20485;-89
2022/04/05 05:29:15;;;;;;;13.48;12.20;;;4.60;99.90;;;;;;5014256;28;20898;-89
2022/04/05 05:31:41;;;;;;;11.98;10.85;;;4.60;99.90;;;;;;5008927;28;20054;-90
2022/04/05 05:34:07;;;;;;;13.30;11.98;;;4.70;99.90;;;;;;5030335;28;20081;-89
2022/04/05 05:36:33;;;;;;;11.25;10.20;;;4.70;99.90;;;;;;5016213;28;20026;-89
2022/04/05 05:38:59;;;;;;;13.43;11.55;;;4.70;99.90;;;;;;5030644;28;20026;-90
2022/04/05 05:41:25;;;;;;;11.95;10.90;;;4.70;99.90;;;;;;5014779;28;20113;-90
2022/04/05 05:43:50;;;;;;;11.02;10.02;;;4.70;99.90;;;;;;5013608;28;20030;-89
2022/04/05 05:46:16;;;;;;;12.05;10.88;;;4.70;99.90;;;;;;5015190;28;20117;-89
2022/04/05 05:48:42;;;;;;;13.00;11.73;;;4.70;99.90;;;;;;5015686;28;20030;-89
2022/04/05 05:51:08;;;;;;;12.05;10.60;;;4.70;99.90;;;;;;5001692;28;20042;-89
2022/04/05 05:53:35;;;;;;;11.80;10.77;;;4.70;99.90;;;;;;4998127;28;20069;-89
2022/04/05 05:56:00;;;;;;;11.35;10.32;;;4.70;99.90;;;;;;5013003;28;20030;-89
2022/04/05 05:58:27;;;;;;;11.38;10.23;;;4.80;99.90;;;;;;4998295;28;20402;-90
2022/04/05 06:00:53;;;;;;;11.38;10.48;;;4.70;99.90;;;;;;5011466;28;20367;-89
2022/04/05 06:03:19;;;;;;;11.15;10.15;;;4.70;99.90;;;;;;4997730;28;20041;-90
2022/04/05 06:05:46;;;;;;;11.63;10.50;;;4.80;99.90;;;;;;4997732;28;20030;-90
2022/04/05 06:08:13;;;;;;;11.55;10.55;;;4.80;99.90;;;;;;5014635;28;20505;-90
2022/04/05 06:10:38;;;;;;;12.50;9.70;;;4.80;99.90;;;;;;5014626;28;20026;-90
2022/04/05 06:13:04;;;;;;;11.43;10.23;;;4.80;99.90;;;;;;5014621;28;20033;-90
2022/04/05 06:15:30;;;;;;;11.82;10.63;;;4.80;99.90;;;;;;4997651;28;20028;-89
2022/04/05 06:18:00;;;;;;;10.77;9.88;;;4.80;99.90;;;;;;4997172;28;20026;-90
2022/04/05 06:20:28;;;;;;;10.00;9.10;;;4.80;99.90;;;;;;5014187;28;20053;-90
2022/04/05 06:22:58;;;;;;;11.43;10.43;;;4.80;99.90;;;;;;5014685;28;20041;-92
2022/04/05 06:25:30;;;;;;;11.13;10.23;;;4.80;99.90;;;;;;5013879;28;20026;-91
2022/04/05 06:27:56;;;;;;;10.88;9.98;;;4.90;99.90;;;;;;5014811;28;20088;-89
2022/04/05 06:30:23;;;;;;;11.45;10.38;;;4.80;99.90;;;;;;5003822;28;20048;-91
2022/04/05 06:32:50;;;;;;;12.70;11.32;;;4.90;99.90;;;;;;5018995;28;20035;-91
2022/04/05 06:35:16;;;;;;;10.88;9.88;;;4.90;99.90;;;;;;4996724;28;20062;-91
2022/04/05 06:37:44;;;;;;;11.43;10.32;;;4.90;99.90;;;;;;5007782;28;20061;-89
2022/04/05 06:40:11;;;;;;;10.43;9.40;;;4.90;99.90;;;;;;5011430;28;20449;-90
2022/04/05 06:42:42;;;;;;;10.68;9.68;;;4.90;99.90;;;;;;5019374;28;20029;-91
2022/04/05 06:45:13;;;;;;;10.15;9.25;;;4.90;99.90;;;;;;5014199;28;20133;-91
2022/04/05 06:47:38;;;;;;;11.82;10.82;;;5.00;99.90;;;;;;5026598;28;20033;-90
2022/04/05 06:50:07;;;;;;;10.93;9.95;;;5.00;99.90;;;;;;5021487;28;20033;-92
2022/04/05 06:52:33;;;;;;;10.82;9.82;;;5.00;99.90;;;;;;4996150;28;20117;-89
2022/04/05 06:54:59;;;;;;;8.90;8.15;;;5.00;99.90;;;;;;5012533;28;20030;-90
2022/04/05 06:57:25;;;;;;;10.65;9.23;;;5.00;99.90;;;;;;5016901;28;20053;-92
2022/04/05 06:59:50;;;;;;;9.38;8.57;;;5.00;99.90;;;;;;5014193;28;20044;-91
2022/04/05 07:02:16;;;;;;;8.35;7.65;;;5.10;99.90;;;;;;5013798;28;20038;-91
2022/04/05 07:04:41;;;;;;;8.52;7.72;;;5.10;99.90;;;;;;4996348;28;20064;-90
2022/04/05 07:07:07;;;;;;;8.27;7.55;;;5.10;99.90;;;;;;4996347;28;20026;-89
2022/04/05 07:09:33;;;;;;;8.05;7.25;;;5.10;99.90;;;;;;4993760;28;20026;-90
2022/04/05 07:11:59;;;;;;;7.50;6.90;;;5.10;99.90;;;;;;5001783;28;20421;-91
2022/04/05 07:14:24;;;;;;;10.60;7.85;;;5.20;99.90;;;;;;5009573;28;20034;-91
2022/04/05 07:16:50;;;;;;;7.85;7.15;;;5.20;99.90;;;;;;4998340;28;20194;-91
2022/04/05 07:19:16;;;;;;;7.63;7.00;;;5.20;99.90;;;;;;5015251;28;20113;-92
2022/04/05 07:21:41;;;;;;;8.65;7.88;;;5.20;99.90;;;;;;4997294;28;20024;-91
2022/04/05 07:24:07;;;;;;;8.07;7.38;;;5.30;99.90;;;;;;5016634;28;20034;-90
2022/04/05 07:26:32;;;;;;;7.78;7.07;;;5.30;99.90;;;;;;5013226;28;20034;-92
2022/04/05 07:28:58;;;;;;;8.25;7.55;;;5.30;99.90;;;;;;5013843;28;20110;-91
2022/04/05 07:31:24;;;;;;;7.55;6.85;;;5.40;99.90;;;;;;4995807;28;20501;-92
2022/04/05 07:33:49;;;;;;;7.90;7.20;;;5.40;99.90;;;;;;4995910;28;20033;-90
2022/04/05 07:36:15;;;;;;;7.55;6.85;;;5.40;99.90;;;;;;4995992;28;20478;-90
2022/04/05 07:38:41;;;;;;;8.35;7.70;;;5.40;99.90;;;;;;5012104;28;20034;-92
2022/04/05 07:41:06;;;;;;;7.40;6.70;;;5.40;99.90;;;;;;4992279;28;20033;-92
2022/04/05 07:43:33;;;;;;;6.50;5.93;;;5.40;99.90;;;;;;5011771;28;20501;-91
2022/04/05 07:45:58;;;;;;;7.38;6.32;;;5.40;99.90;;;;;;4996191;28;20125;-91
2022/04/05 07:48:28;;;;;;;6.85;6.25;;;5.40;99.90;;;;;;5006242;28;20612;-92
2022/04/05 07:50:54;;;;;;;7.07;6.47;;;5.50;99.90;;;;;;5011427;28;20037;-90
2022/04/05 07:53:19;;;;;;;6.35;5.85;;;5.50;99.90;;;;;;5013221;28;20045;-91
2022/04/05 07:55:45;;;;;;;6.60;6.00;;;5.50;99.90;;;;;;5013330;28;20473;-89
2022/04/05 07:58:11;;;;;;;6.57;6.07;;;5.50;99.90;;;;;;5005085;28;20030;-92
2022/04/05 08:00:37;;;;;;;5.75;5.35;;;5.60;99.90;;;;;;5013732;28;20014;-94
2022/04/05 08:03:03;;;;;;;7.03;5.70;;;5.60;99.90;;;;;;4992533;28;20030;-90
2022/04/05 08:05:29;;;;;;;5.95;5.45;;;5.60;99.90;;;;;;5007819;28;20054;-91
2022/04/05 08:07:55;;;;;;;5.80;5.32;;;5.60;99.90;;;;;;4995782;28;20025;-89
2022/04/05 08:10:22;;;;;;;6.20;5.18;;;5.70;99.90;;;;;;4995172;28;20029;-89
2022/04/05 08:12:50;;;;;;;5.30;4.80;;;5.60;99.90;;;;;;5013266;28;20037;-91
2022/04/05 08:15:25;;;;;;;6.55;5.85;;;5.70;99.90;;;;;;4996127;28;20033;-89
2022/04/05 08:17:51;;;;;;;6.25;5.65;;;5.70;99.90;;;;;;4995054;28;20026;-91
2022/04/05 08:20:18;;;;;;;6.88;5.07;;;5.70;99.90;;;;;;5016740;28;20026;-91
2022/04/05 08:22:45;;;;;;;6.80;5.30;;;5.80;99.90;;;;;;5002438;28;20026;-90
2022/04/05 08:25:14;;;;;;;5.95;5.45;;;5.80;99.90;;;;;;4995460;28;20026;-91
2022/04/05 08:27:41;;;;;;;6.45;5.85;;;5.80;99.90;;;;;;4998383;28;20029;-89
2022/04/05 08:30:12;;;;;;;6.10;5.60;;;5.80;99.90;;;;;;5012662;28;20042;-90
2022/04/05 08:32:42;;;;;;;;;;;5.80;99.90;;;;;;5003561;28;20031;-90
2022/04/05 08:35:11;;;;;;;5.60;5.10;;;5.90;99.90;;;;;;5001815;28;19917;-90
2022/04/05 08:37:38;;;;;;;6.85;6.28;;;5.90;99.90;;;;;;4999159;28;20494;-90
2022/04/05 08:40:06;;;;;;;5.22;4.80;;;6.00;99.90;;;;;;5007251;28;20037;-90
2022/04/05 08:42:45;;;;;;;6.38;5.78;;;6.00;99.90;;;;;;4992026;28;20027;-90
2022/04/05 08:45:13;;;;;;;5.60;5.20;;;6.00;99.90;;;;;;5013051;28;20106;-90
2022/04/05 08:47:44;;;;;;;5.63;5.13;;;6.10;99.90;;;;;;4979823;28;20490;-91
2022/04/05 08:50:10;;;;;;;6.65;5.38;;;6.20;99.90;;;;;;5007915;28;20030;-90
2022/04/05 08:52:35;;;;;;;6.00;5.50;;;6.20;99.90;;;;;;4995042;28;20034;-90
2022/04/05 08:55:02;;;;;;;4.78;4.38;;;6.20;99.90;;;;;;4997291;28;20037;-90
2022/04/05 08:57:27;;;;;;;5.72;5.22;;;6.20;99.90;;;;;;5006115;28;20064;-91
2022/04/05 08:59:53;;;;;;;5.70;5.20;;;6.30;99.90;;;;;;4979501;28;20034;-89
2022/04/05 09:02:26;;;;;;;5.28;4.78;;;6.30;99.90;;;;;;5013881;28;20056;-89
2022/04/05 09:04:52;;;;;;;5.63;5.13;;;6.30;99.90;;;;;;4997520;28;20030;-90
2022/04/05 09:07:29;;;;;;;5.38;4.88;;;6.30;99.90;;;;;;4997138;28;20494;-90
2022/04/05 09:10:26;;;;;;;5.28;4.85;;;6.40;99.90;;;;;;5012616;28;20022;-90
2022/04/05 09:12:52;;;;;;;5.15;4.63;;;6.40;99.90;;;;;;4956161;28;20540;-91
2022/04/05 09:15:21;;;;;;;5.28;4.70;;;6.40;99.90;;;;;;5004657;28;20030;-91
2022/04/05 09:17:48;;;;;;;4.68;4.28;;;6.40;99.90;;;;;;4997817;28;20437;-91
2022/04/05 09:20:16;;;;;;;5.07;4.68;;;6.50;99.90;;;;;;5016685;28;20057;-90
2022/04/05 09:22:42;;;;;;;5.32;4.50;;;6.50;99.90;;;;;;5016085;28;20452;-91
2022/04/05 09:25:16;;;;;;;4.80;4.40;;;6.50;99.90;;;;;;5015558;28;20021;-90
2022/04/05 09:27:48;;;;;;;6.47;5.30;;;6.60;99.90;;;;;;5001803;28;20018;-90
2022/04/05 09:30:15;;;;;;;12.18;4.85;;;6.60;99.90;;;;;;5016876;28;20042;-90
2022/04/05 09:32:43;;;;;;;5.20;4.40;;;6.70;99.90;;;;;;5049491;28;20041;-91
2022/04/05 09:35:10;;;;;;;4.80;4.40;;;6.70;99.90;;;;;;5055301;28;20029;-91
2022/04/05 09:37:39;;;;;;;5.15;4.75;;;6.80;99.90;;;;;;5056708;28;20075;-90
2022/04/05 09:40:22;;;;;;;5.60;5.10;;;6.80;99.90;;;;;;5050214;28;20171;-90
2022/04/05 09:42:57;;;;;;;4.90;4.50;;;6.90;99.90;;;;;;5050634;28;20024;-90
2022/04/05 09:45:40;;;;;;;4.95;4.45;;;6.90;99.90;;;;;;5055552;28;20021;-90
2022/04/05 09:48:06;;;;;;;3.95;3.65;;;6.90;99.90;;;;;;5017943;28;20077;-90
2022/04/05 09:50:32;;;;;;;3.85;3.45;;;6.90;99.90;;;;;;5051700;28;20079;-89
2022/04/05 09:53:05;;;;;;;4.57;4.18;;;6.90;99.90;;;;;;5026612;28;20492;-90
2022/04/05 09:55:31;;;;;;;5.15;4.75;;;6.90;99.90;;;;;;5049382;28;20033;-90
2022/04/05 09:58:11;;;;;;;4.15;3.75;;;6.90;99.90;;;;;;5026007;28;20107;-91
2022/04/05 10:00:37;;;;;;;4.20;3.85;;;6.90;99.90;;;;;;5030999;28;20162;-90
2022/04/05 10:03:08;;;;;;;5.18;4.68;;;6.90;99.90;;;;;;5054683;28;20449;-90
2022/04/05 10:05:35;;;;;;;4.43;4.03;;;6.90;99.90;;;;;;5036218;28;20021;-89
2022/04/05 10:08:02;;;;;;;4.60;4.20;;;7.00;99.90;;;;;;5036857;28;20041;-90
2022/04/05 10:10:28;;;;;;;4.50;3.90;;;6.90;99.90;;;;;;5036635;28;20032;-91
2022/04/05 10:12:54;;;;;;;4.05;3.75;;;7.00;99.90;;;;;;5036695;28;20033;-90
2022/04/05 10:15:21;;;;;;;5.15;4.63;;;7.00;99.90;;;;;;5048670;28;20021;-90
2022/04/05 10:17:51;;;;;;;3.67;3.38;;;7.00;99.90;;;;;;5036493;28;20117;-90
2022/04/05 10:20:18;;;;;;;4.37;4.07;;;7.10;99.90;;;;;;5036572;28;20071;-91
2022/04/05 10:22:50;;;;;;;4.18;3.78;;;7.10;99.90;;;;;;5040682;28;20029;-90
2022/04/05 10:25:16;;;;;;;4.40;4.03;;;7.10;99.90;;;;;;5054235;28;20025;-90
2022/04/05 10:27:42;;;;;;;5.18;4.68;;;7.20;99.90;;;;;;5054964;28;20079;-90
2022/04/05 10:30:18;;;;;;;4.35;4.05;;;7.20;99.90;;;;;;5036117;28;20103;-90
2022/04/05 10:32:54;;;;;;;4.53;4.13;;;7.20;99.90;;;;;;5036500;28;20033;-90
2022/04/05 10:35:24;;;;;;;4.30;4.00;;;7.20;99.90;;;;;;5053833;28;20447;-90
2022/04/05 10:37:52;;;;;;;4.30;3.90;;;7.20;99.90;;;;;;5036813;28;20558;-90
2022/04/05 10:40:20;;;;;;;11.52;4.38;;;7.20;99.90;;;;;;5053890;28;20033;-90
2022/04/05 10:42:52;;;;;;;5.20;4.78;;;7.20;99.90;;;;;;5047654;28;20392;-91
2022/04/05 10:45:29;;;;;;;4.78;4.32;;;7.20;99.90;;;;;;5049769;28;20017;-90
2022/04/05 10:48:21;;;;;;;4.47;4.18;;;7.30;99.90;;;;;;5053930;28;20727;-91
2022/04/05 10:51:07;;;;;;;4.35;4.05;;;7.30;99.90;;;;;;5033916;28;20025;-89
2022/04/05 10:56:30;;;;;;;4.78;4.35;;;7.40;99.90;;;;;;5054027;28;20498;-90
2022/04/05 10:59:08;;;;;;;4.32;3.95;;;7.40;99.90;;;;;;5052839;28;20029;-89
2022/04/05 11:01:45;;;;;;;3.85;3.55;;;7.50;99.90;;;;;;5053471;28;20091;-90
2022/04/05 11:04:18;;;;;;;4.43;4.05;;;7.50;99.90;;;;;;5037277;28;20029;-90
2022/04/05 11:07:01;;;;;;;4.35;3.72;;;7.50;99.90;;;;;;5062346;28;20029;-89
2022/04/05 11:09:52;;;;;;;4.25;3.92;;;7.50;99.90;;;;;;5047092;28;20423;-90
2022/04/05 11:12:24;;;;;;;4.10;3.78;;;7.60;99.90;;;;;;5037438;28;20029;-89
2022/04/05 11:14:55;;;;;;;4.43;4.03;;;7.60;99.90;;;;;;5053182;28;20164;-90
2022/04/05 11:17:27;;;;;;;4.00;3.70;;;7.70;99.90;;;;;;5045879;28;20135;-90
2022/04/05 11:19:55;;;;;;;4.40;3.60;;;7.80;99.90;;;;;;5048256;28;20083;-91
2022/04/05 11:22:21;;;;;;;4.20;3.90;;;7.80;99.90;;;;;;5054251;28;20025;-90
2022/04/05 11:24:50;;;;;;;3.67;3.38;;;7.90;99.90;;;;;;5054164;28;20075;-89
2022/04/05 11:27:38;;;;;;;4.05;3.75;;;7.90;99.90;;;;;;5037534;28;20017;-90
2022/04/05 11:33:09;;;;;;;4.50;4.18;;;7.80;99.90;;;;;;5034322;28;20060;-90
2022/04/05 11:35:48;;;;;;;3.75;3.45;;;7.80;99.90;;;;;;5016111;28;20055;-91
2022/04/05 11:38:17;;;;;;;6.38;4.20;;;7.80;99.90;;;;;;5016169;28;20060;-91
2022/04/05 11:40:47;;;;;;;4.05;3.75;;;7.80;99.90;;;;;;5016290;28;20090;-89
2022/04/05 11:43:24;;;;;;;4.30;3.90;;;7.80;99.90;;;;;;5003020;28;20033;-90
2022/04/05 11:45:52;;;;;;;4.68;4.13;;;7.80;99.90;;;;;;5019902;28;20025;-89
2022/04/05 11:48:23;;;;;;;4.13;3.83;;;7.80;99.90;;;;;;5035890;28;20032;-89
2022/04/05 11:50:50;;;;;;;4.63;4.22;;;7.80;99.90;;;;;;5052819;28;20032;-91
2022/04/05 11:53:18;;;;;;;4.35;3.95;;;7.70;99.90;;;;;;5034203;28;20032;-90
2022/04/05 11:56:22;;;;;;;4.05;3.70;;;7.80;99.90;;;;;;5051180;28;20021;-90
2022/04/05 11:58:56;;;;;;;3.67;3.42;;;7.80;99.90;;;;;;5032015;28;20092;-89
2022/04/05 12:01:28;;;;;;;4.50;4.10;;;7.90;99.90;;;;;;5040531;28;20025;-91
2022/04/05 12:03:55;;;;;;;4.93;4.32;;;7.90;99.90;;;;;;5035134;28;20107;-91
2022/04/05 12:06:24;;;;;;;4.13;3.72;;;8.00;99.90;;;;;;5035929;28;20075;-90
2022/04/05 12:08:53;;;;;;;4.50;4.10;;;8.00;99.90;;;;;;5035048;28;20029;-91
2022/04/05 12:11:21;;;;;;;4.13;3.80;;;8.10;99.90;;;;;;5034513;28;20044;-91
2022/04/05 12:13:55;;;;;;;4.07;3.78;;;8.00;99.90;;;;;;5034933;28;20380;-90
2022/04/05 12:16:22;;;;;;;3.40;3.10;;;8.00;99.90;;;;;;5034390;28;20017;-89
2022/04/05 12:18:48;;;;;;;3.45;3.17;;;8.00;99.90;;;;;;5050142;28;20017;-91
2022/04/05 12:21:14;;;;;;;3.80;3.50;;;8.00;99.90;;;;;;5035138;28;20432;-90
2022/04/05 12:23:43;;;;;;;5.20;3.83;;;8.00;99.90;;;;;;5034114;28;20068;-90
2022/04/05 12:26:24;;;;;;;3.83;3.53;;;8.00;99.90;;;;;;5034601;28;20037;-90
2022/04/05 12:28:51;;;;;;;;;;;8.00;99.90;;;;;;5034633;28;20021;-90
2022/04/05 12:31:22;;;;;;;3.97;3.58;;;8.00;99.90;;;;;;5052222;28;19921;-90
2022/04/05 12:33:53;;;;;;;;;;;8.00;99.90;;;;;;5052523;28;20029;-89
2022/04/05 12:36:20;;;;;;;4.45;4.05;;;8.00;99.90;;;;;;5052902;28;19951;-91
2022/04/05 12:38:47;;;;;;;4.70;4.30;;;7.90;99.90;;;;;;5034275;28;20036;-90
2022/04/05 12:41:17;;;;;;;4.20;3.78;;;8.00;99.90;;;;;;5034379;28;20396;-90
2022/04/05 12:43:44;;;;;;;4.25;3.88;;;7.90;99.90;;;;;;5052332;28;20025;-90
2022/04/05 12:46:11;;;;;;;4.65;4.25;;;8.00;99.90;;;;;;5033538;28;20029;-90
2022/04/05 12:48:38;;;;;;;4.40;4.00;;;8.00;99.90;;;;;;5034898;28;20111;-91
2022/04/05 12:51:05;;;;;;;5.40;4.90;;;8.00;99.90;;;;;;5051155;28;20400;-90
2022/04/05 12:53:37;;;;;;;4.75;4.35;;;8.00;99.90;;;;;;5033974;28;20025;-90
2022/04/05 12:56:08;;;;;;;10.10;4.82;;;8.00;99.90;;;;;;5037115;28;20087;-90
2022/04/05 12:58:41;;;;;;;;;;;8.00;99.90;;;;;;5052382;28;20040;-90